Time;durP1;ratioP1;P1;durP2;ratioP2;P2;SDS_P1;SDS_P2;PMS_P1;PMS_P2;Temp;Humidity;BMP_temperature;BMP_pressure;BME280_temperature;BME280_humidity;BME280_pressure;Samples;Min_cycle;Max_cycle;Signal;HPM_P1;HPM_P2
2022/07/21 00:00:22;;;;;;;28.43;20.03;;;20.80;99.90;;;;;;4991303;28;20494;-73
2022/07/21 00:02:49;;;;;;;31.10;19.27;;;20.90;99.90;;;;;;4991600;28;20463;-72
2022/07/21 00:05:17;;;;;;;22.60;17.73;;;20.90;99.90;;;;;;4990621;28;21092;-72
2022/07/21 00:07:43;;;;;;;30.73;19.20;;;20.90;99.90;;;;;;4991973;28;20506;-73
2022/07/21 00:10:12;;;;;;;24.23;18.47;;;20.90;99.90;;;;;;4992023;28;20471;-73
2022/07/21 00:12:38;;;;;;;24.40;18.67;;;20.90;99.90;;;;;;4992290;28;20547;-72
2022/07/21 00:15:07;;;;;;;25.20;19.10;;;20.90;99.90;;;;;;4991848;28;20447;-72
2022/07/21 00:17:34;;;;;;;26.07;19.57;;;20.90;99.90;;;;;;4992295;28;20475;-72
2022/07/21 00:20:01;;;;;;;22.57;18.57;;;20.90;99.90;;;;;;4991889;28;20495;-73
2022/07/21 00:22:28;;;;;;;26.63;18.63;;;20.90;99.90;;;;;;4992285;28;20455;-72
2022/07/21 00:24:54;;;;;;;23.00;19.40;;;20.90;99.90;;;;;;4991787;28;20443;-73
2022/07/21 00:27:22;;;;;;;28.43;20.80;;;20.80;99.90;;;;;;4991399;28;20545;-73
2022/07/21 00:29:49;;;;;;;28.90;21.60;;;20.80;99.90;;;;;;4991963;28;20510;-72
2022/07/21 00:32:16;;;;;;;33.93;22.63;;;20.80;99.90;;;;;;4992170;28;20517;-73
2022/07/21 00:34:43;;;;;;;27.00;21.00;;;20.70;99.90;;;;;;4991580;28;20880;-73
2022/07/21 00:37:10;;;;;;;28.50;21.40;;;20.70;99.90;;;;;;4991400;28;20479;-72
2022/07/21 00:39:37;;;;;;;34.53;21.17;;;20.70;99.90;;;;;;4991904;28;20486;-73
2022/07/21 00:42:04;;;;;;;33.33;21.10;;;20.70;99.90;;;;;;4991816;28;20475;-72
2022/07/21 00:44:32;;;;;;;25.67;21.03;;;20.60;99.90;;;;;;4991843;28;20458;-73
2022/07/21 00:46:59;;;;;;;29.73;21.63;;;20.60;99.90;;;;;;4991064;28;21045;-73
2022/07/21 00:49:27;;;;;;;32.00;21.77;;;20.60;99.90;;;;;;4994717;28;20509;-73
2022/07/21 00:51:54;;;;;;;24.00;18.93;;;20.60;99.90;;;;;;4995280;28;20459;-72
2022/07/21 00:54:20;;;;;;;30.27;20.90;;;20.60;99.90;;;;;;4995843;28;20509;-73
2022/07/21 00:56:47;;;;;;;37.87;21.03;;;20.60;99.90;;;;;;4995054;28;20533;-73
2022/07/21 00:59:15;;;;;;;37.87;23.30;;;20.60;99.90;;;;;;4995238;28;20544;-73
2022/07/21 01:01:43;;;;;;;34.00;23.50;;;20.60;99.90;;;;;;4995328;28;20517;-73
2022/07/21 01:04:10;;;;;;;34.07;25.10;;;20.60;99.90;;;;;;4988033;28;20451;-72
2022/07/21 01:06:37;;;;;;;31.97;25.50;;;20.60;99.90;;;;;;4995029;28;20470;-73
2022/07/21 01:09:03;;;;;;;35.67;25.60;;;20.60;99.90;;;;;;4995176;28;20488;-73
2022/07/21 01:11:31;;;;;;;37.53;27.53;;;20.60;99.90;;;;;;4995597;28;20450;-73
2022/07/21 01:13:58;;;;;;;37.63;27.17;;;20.60;99.90;;;;;;5003407;28;20454;-73
2022/07/21 01:16:25;;;;;;;37.00;27.43;;;20.60;99.90;;;;;;4994952;28;20521;-73
2022/07/21 01:18:53;;;;;;;39.23;28.37;;;20.60;99.90;;;;;;4994670;28;20506;-72
2022/07/21 01:21:31;;;;;;;44.10;30.47;;;20.60;99.90;;;;;;4995195;28;20517;-73
2022/07/21 01:23:58;;;;;;;40.23;29.50;;;20.60;99.90;;;;;;4994788;28;20529;-73
2022/07/21 01:26:25;;;;;;;42.43;31.87;;;20.60;99.90;;;;;;4994822;28;20500;-72
2022/07/21 01:28:52;;;;;;;45.80;31.33;;;20.60;99.90;;;;;;4994857;28;20459;-72
2022/07/21 01:31:19;;;;;;;47.97;32.40;;;20.60;99.90;;;;;;4996007;28;20455;-72
2022/07/21 01:33:45;;;;;;;49.10;33.97;;;20.60;99.90;;;;;;4985002;28;20451;-73
2022/07/21 01:36:12;;;;;;;49.87;32.77;;;20.50;99.90;;;;;;4992765;28;20528;-72
2022/07/21 01:41:33;;;;;;;42.90;32.73;;;20.50;99.90;;;;;;5000351;28;21037;-72
2022/07/21 01:44:02;;;;;;;50.53;33.57;;;20.50;99.90;;;;;;4994794;28;20454;-72
2022/07/21 01:46:30;;;;;;;49.53;32.70;;;20.50;99.90;;;;;;4994383;28;20467;-72
2022/07/21 01:48:57;;;;;;;46.03;34.30;;;20.50;99.90;;;;;;4994744;28;20910;-72
2022/07/21 01:51:24;;;;;;;53.40;32.80;;;20.50;99.90;;;;;;4994256;28;20902;-72
2022/07/21 01:53:52;;;;;;;56.73;32.03;;;20.50;99.90;;;;;;4994563;28;20987;-72
2022/07/21 01:56:20;;;;;;;45.93;32.17;;;20.40;99.90;;;;;;4997667;28;20857;-73
2022/07/21 01:58:47;;;;;;;38.10;28.40;;;20.40;99.90;;;;;;4994703;28;20426;-72
2022/07/21 02:01:15;;;;;;;42.30;29.73;;;20.40;99.90;;;;;;4993296;28;20538;-72
2022/07/21 02:03:41;;;;;;;37.77;23.33;;;20.40;99.90;;;;;;4994499;28;21025;-72
2022/07/21 02:06:08;;;;;;;40.43;22.63;;;20.30;99.90;;;;;;4993877;28;20475;-73
2022/07/21 02:08:35;;;;;;;28.03;18.13;;;20.20;99.90;;;;;;4993743;28;20470;-72
2022/07/21 02:11:04;;;;;;;30.67;15.10;;;20.20;99.90;;;;;;4994124;28;20454;-73
2022/07/21 02:13:31;;;;;;;21.43;14.40;;;20.10;99.90;;;;;;4993855;28;20456;-73
2022/07/21 02:15:58;;;;;;;17.17;13.90;;;20.00;99.90;;;;;;4993983;28;20969;-73
2022/07/21 02:18:24;;;;;;;27.60;13.67;;;19.90;99.90;;;;;;4993967;28;20502;-73
2022/07/21 02:20:51;;;;;;;21.67;13.23;;;19.80;99.90;;;;;;4994297;28;20478;-73
2022/07/21 02:23:18;;;;;;;16.60;12.20;;;19.80;99.90;;;;;;4993570;28;20455;-73
2022/07/21 02:25:46;;;;;;;16.03;12.30;;;19.70;99.90;;;;;;4993974;28;20484;-73
2022/07/21 02:28:14;;;;;;;20.13;11.97;;;19.50;99.90;;;;;;4993717;28;20869;-74
2022/07/21 02:30:41;;;;;;;17.57;12.60;;;19.40;99.90;;;;;;4994824;28;20451;-73
2022/07/21 02:33:08;;;;;;;19.77;12.07;;;19.30;99.90;;;;;;4993170;28;20457;-73
2022/07/21 02:35:35;;;;;;;13.20;11.70;;;19.20;99.90;;;;;;4993639;28;20909;-73
2022/07/21 02:38:01;;;;;;;16.70;11.43;;;19.20;99.90;;;;;;4993757;28;20422;-73
2022/07/21 02:40:28;;;;;;;18.40;11.63;;;19.10;99.90;;;;;;4993721;28;20462;-73
2022/07/21 02:42:54;;;;;;;16.70;11.97;;;19.10;99.90;;;;;;4993429;28;20951;-73
2022/07/21 02:45:23;;;;;;;16.90;12.33;;;19.00;99.90;;;;;;4996377;28;20501;-73
2022/07/21 02:47:51;;;;;;;16.37;12.30;;;19.00;99.90;;;;;;4993418;28;20453;-73
2022/07/21 02:50:18;;;;;;;15.80;11.57;;;18.90;99.90;;;;;;4993682;28;20456;-73
2022/07/21 02:52:45;;;;;;;15.07;11.80;;;18.90;99.90;;;;;;4993630;28;20455;-73
2022/07/21 02:55:12;;;;;;;13.00;11.60;;;18.90;99.90;;;;;;4992983;28;20474;-73
2022/07/21 02:57:38;;;;;;;17.97;12.10;;;18.90;99.90;;;;;;5001140;28;20461;-73
2022/07/21 03:00:07;;;;;;;15.10;12.70;;;18.90;99.90;;;;;;5010064;28;20466;-73
2022/07/21 03:02:35;;;;;;;20.27;14.13;;;18.80;99.90;;;;;;4993390;28;20538;-73
2022/07/21 03:05:02;;;;;;;20.80;13.37;;;18.80;99.90;;;;;;4992860;28;20563;-73
2022/07/21 03:07:29;;;;;;;19.13;13.67;;;18.80;99.90;;;;;;5002569;28;20947;-73
2022/07/21 03:09:56;;;;;;;15.20;12.10;;;18.80;99.90;;;;;;4992953;28;20429;-73
2022/07/21 03:12:22;;;;;;;18.37;13.47;;;18.80;99.90;;;;;;4992512;28;21207;-73
2022/07/21 03:14:49;;;;;;;15.33;12.37;;;18.70;99.90;;;;;;4992719;28;20974;-74
2022/07/21 03:17:16;;;;;;;15.53;12.53;;;18.70;99.90;;;;;;4992550;28;20534;-73
2022/07/21 03:19:43;;;;;;;14.73;11.90;;;18.70;99.90;;;;;;4993081;28;21017;-73
2022/07/21 03:22:10;;;;;;;16.47;11.63;;;18.70;99.90;;;;;;4992909;28;20442;-73
2022/07/21 03:24:37;;;;;;;14.90;11.57;;;18.70;99.90;;;;;;4992964;28;20455;-73
2022/07/21 03:27:04;;;;;;;16.30;11.30;;;18.60;99.90;;;;;;4992219;28;21126;-73
2022/07/21 03:29:30;;;;;;;14.70;10.83;;;18.70;99.90;;;;;;4992642;28;20451;-73
2022/07/21 03:31:57;;;;;;;18.23;11.50;;;18.70;99.90;;;;;;4992724;28;20451;-73
2022/07/21 03:34:23;;;;;;;12.80;10.57;;;18.70;99.90;;;;;;4992427;28;20837;-73
2022/07/21 03:36:51;;;;;;;15.53;10.90;;;18.70;99.90;;;;;;4993268;28;20521;-73
2022/07/21 03:39:18;;;;;;;15.37;10.90;;;18.70;99.90;;;;;;4992718;28;20472;-73
2022/07/21 03:41:45;;;;;;;14.50;11.17;;;18.70;99.90;;;;;;4992579;28;20553;-73
2022/07/21 03:44:11;;;;;;;17.80;10.97;;;18.70;99.90;;;;;;4992330;28;20457;-73
2022/07/21 03:46:38;;;;;;;13.00;11.60;;;18.70;99.90;;;;;;4992401;28;20457;-73
2022/07/21 03:49:04;;;;;;;14.77;11.50;;;18.70;99.90;;;;;;4992721;28;20426;-72
2022/07/21 03:51:31;;;;;;;14.27;11.70;;;18.70;99.90;;;;;;5003500;28;20429;-72
2022/07/21 03:54:01;;;;;;;12.20;10.40;;;18.70;99.90;;;;;;4992075;28;20510;-73
2022/07/21 03:56:28;;;;;;;12.67;10.53;;;18.70;99.90;;;;;;4992351;28;20913;-73
2022/07/21 03:58:54;;;;;;;15.87;10.33;;;18.70;99.90;;;;;;4992319;28;20474;-73
2022/07/21 04:01:21;;;;;;;10.83;9.73;;;18.60;99.90;;;;;;4992259;28;20536;-73
2022/07/21 04:03:48;;;;;;;10.70;9.60;;;18.70;99.90;;;;;;4995758;28;20990;-73
2022/07/21 04:06:14;;;;;;;12.00;10.03;;;18.70;99.90;;;;;;4996745;28;20468;-73
2022/07/21 04:08:41;;;;;;;15.10;10.10;;;18.70;99.90;;;;;;4990552;28;20466;-72
2022/07/21 04:11:09;;;;;;;16.30;10.43;;;18.80;99.90;;;;;;4992180;28;20878;-72
2022/07/21 04:13:36;;;;;;;14.10;10.07;;;18.80;99.90;;;;;;4973060;28;20454;-72
2022/07/21 04:16:03;;;;;;;11.67;10.30;;;18.80;99.90;;;;;;4977564;28;20493;-73
2022/07/21 04:18:29;;;;;;;12.60;9.90;;;18.80;99.90;;;;;;4991730;28;20451;-73
2022/07/21 04:20:56;;;;;;;10.67;9.53;;;18.90;99.90;;;;;;4991788;28;20508;-73
2022/07/21 04:23:22;;;;;;;11.73;10.53;;;18.90;99.90;;;;;;4994532;28;20454;-72
2022/07/21 04:25:49;;;;;;;15.40;10.40;;;18.90;99.90;;;;;;5012459;28;20504;-73
2022/07/21 04:28:17;;;;;;;11.47;9.60;;;18.90;99.90;;;;;;5001691;28;20476;-72
2022/07/21 04:30:44;;;;;;;13.80;10.40;;;19.00;99.90;;;;;;4998431;28;20521;-73
2022/07/21 04:33:10;;;;;;;11.07;9.10;;;19.10;99.90;;;;;;4998465;28;20429;-73
2022/07/21 04:35:37;;;;;;;13.67;10.23;;;19.10;99.90;;;;;;4999008;28;20521;-72
2022/07/21 04:38:04;;;;;;;13.00;9.97;;;19.10;99.90;;;;;;5004987;28;20451;-72
2022/07/21 04:40:30;;;;;;;13.00;9.60;;;19.10;99.90;;;;;;4998426;28;20547;-73
2022/07/21 04:42:57;;;;;;;13.90;8.17;;;19.10;99.90;;;;;;4998367;28;20512;-73
2022/07/21 04:45:25;;;;;;;12.00;8.67;;;19.10;99.90;;;;;;4998163;28;20505;-72
2022/07/21 04:47:55;;;;;;;10.13;7.90;;;19.10;99.90;;;;;;5004180;28;20470;-73
2022/07/21 04:50:24;;;;;;;8.80;7.90;;;19.10;99.90;;;;;;4998417;28;20513;-73
2022/07/21 04:52:51;;;;;;;9.20;8.30;;;19.20;99.90;;;;;;4998153;28;20506;-73
2022/07/21 04:55:19;;;;;;;9.67;7.87;;;19.10;99.90;;;;;;4998016;28;20509;-72
2022/07/21 04:57:47;;;;;;;9.53;8.50;;;19.30;99.90;;;;;;4998368;28;20470;-72
2022/07/21 05:00:16;;;;;;;9.73;7.47;;;19.30;99.90;;;;;;4997880;28;20536;-73
2022/07/21 05:02:45;;;;;;;11.90;7.20;;;19.40;99.90;;;;;;4998251;28;20513;-74
2022/07/21 05:05:12;;;;;;;11.00;8.67;;;19.40;99.90;;;;;;4997712;28;20429;-74
2022/07/21 05:07:38;;;;;;;11.97;8.67;;;19.50;99.90;;;;;;4998341;28;20478;-74
2022/07/21 05:10:06;;;;;;;15.53;10.60;;;19.70;99.90;;;;;;4997713;28;20561;-75
2022/07/21 05:12:32;;;;;;;12.57;9.70;;;19.80;99.90;;;;;;4998283;28;20502;-74
2022/07/21 05:14:59;;;;;;;17.70;10.00;;;19.80;99.90;;;;;;5010812;28;20450;-74
2022/07/21 05:17:26;;;;;;;15.43;11.40;;;19.70;99.90;;;;;;4997669;28;20475;-74
2022/07/21 05:19:54;;;;;;;12.23;10.60;;;19.70;99.90;;;;;;4997541;28;20510;-74
2022/07/21 05:22:20;;;;;;;14.30;10.10;;;19.60;99.90;;;;;;4998132;28;21001;-74
2022/07/21 05:24:47;;;;;;;17.00;10.70;;;19.40;99.90;;;;;;4997723;28;20517;-75
2022/07/21 05:27:14;;;;;;;15.30;9.93;;;19.40;99.90;;;;;;4997669;28;20466;-75
2022/07/21 05:29:40;;;;;;;13.27;11.10;;;19.40;99.90;;;;;;4987856;28;20521;-75
2022/07/21 05:32:07;;;;;;;18.27;11.73;;;19.40;99.90;;;;;;4998160;28;20509;-75
2022/07/21 05:34:34;;;;;;;26.20;10.57;;;19.40;99.90;;;;;;4996890;28;20459;-74
2022/07/21 05:37:02;;;;;;;12.53;9.50;;;19.50;99.90;;;;;;5004167;28;20470;-74
2022/07/21 05:39:29;;;;;;;17.30;9.20;;;19.70;99.90;;;;;;5006140;28;20463;-75
2022/07/21 05:41:56;;;;;;;13.43;8.40;;;19.80;99.90;;;;;;4994409;28;20491;-75
2022/07/21 05:44:23;;;;;;;8.47;7.57;;;19.90;99.90;;;;;;4990846;28;20461;-75
2022/07/21 05:46:49;;;;;;;10.00;7.13;;;20.10;99.90;;;;;;4993501;28;20526;-76
2022/07/21 05:49:16;;;;;;;7.67;6.67;;;20.30;99.90;;;;;;4994494;28;20451;-76
2022/07/21 05:51:43;;;;;;;13.50;6.50;;;20.30;99.90;;;;;;5004655;28;20520;-76
2022/07/21 05:54:11;;;;;;;8.03;7.23;;;20.30;99.90;;;;;;5010659;28;20470;-75
2022/07/21 05:56:37;;;;;;;8.20;6.70;;;20.20;99.90;;;;;;5012699;28;20501;-76
2022/07/21 05:59:04;;;;;;;7.17;6.57;;;20.30;99.90;;;;;;4993893;28;21029;-75
2022/07/21 06:01:31;;;;;;;8.33;6.70;;;20.20;99.90;;;;;;4994129;28;20491;-75
2022/07/21 06:03:57;;;;;;;10.20;7.20;;;20.20;99.90;;;;;;4994300;28;20996;-74
2022/07/21 06:06:24;;;;;;;11.70;7.50;;;20.10;99.90;;;;;;4993704;28;20475;-74
2022/07/21 06:08:51;;;;;;;8.30;7.10;;;20.00;99.90;;;;;;4994619;28;20517;-74
2022/07/21 06:11:21;;;;;;;11.50;7.13;;;20.00;99.90;;;;;;4996265;28;20546;-74
2022/07/21 06:13:49;;;;;;;9.60;6.60;;;20.00;99.90;;;;;;4991023;28;20463;-74
2022/07/21 06:16:15;;;;;;;9.10;7.30;;;20.00;99.90;;;;;;4994355;28;20452;-74
2022/07/21 06:18:42;;;;;;;7.03;6.33;;;20.30;99.90;;;;;;4997966;28;20450;-74
2022/07/21 06:21:09;;;;;;;7.00;6.30;;;20.70;99.90;;;;;;4995592;28;20485;-74
2022/07/21 06:23:35;;;;;;;9.33;7.20;;;21.00;99.90;;;;;;4996759;28;20461;-73
2022/07/21 06:26:02;;;;;;;8.87;6.67;;;21.20;99.90;;;;;;4999376;28;20466;-73
2022/07/21 06:28:30;;;;;;;8.13;7.10;;;21.30;99.90;;;;;;5000428;28;20450;-74
2022/07/21 06:30:57;;;;;;;9.87;7.83;;;21.20;99.90;;;;;;4999663;28;20480;-72
2022/07/21 06:33:23;;;;;;;9.13;7.73;;;21.00;99.90;;;;;;4999735;28;20456;-72
2022/07/21 06:35:50;;;;;;;10.37;8.10;;;20.90;99.90;;;;;;4999579;28;20434;-72
2022/07/21 06:38:17;;;;;;;15.00;7.23;;;20.90;99.90;;;;;;4999985;28;20446;-74
2022/07/21 06:40:44;;;;;;;8.50;7.53;;;21.00;99.90;;;;;;5000131;28;20537;-74
2022/07/21 06:43:11;;;;;;;8.77;7.90;;;20.90;99.90;;;;;;4999334;28;20467;-74
2022/07/21 06:45:39;;;;;;;9.93;7.70;;;20.90;99.90;;;;;;4998466;28;20456;-74
2022/07/21 06:48:08;;;;;;;9.80;7.60;;;20.80;99.90;;;;;;4999647;28;20445;-74
2022/07/21 06:50:36;;;;;;;10.80;7.90;;;20.80;99.90;;;;;;4999600;28;20459;-73
2022/07/21 06:53:03;;;;;;;8.73;7.90;;;20.80;99.90;;;;;;4999668;28;21269;-73
2022/07/21 06:55:30;;;;;;;8.73;7.93;;;20.70;99.90;;;;;;4999407;28;20451;-74
2022/07/21 06:57:57;;;;;;;11.63;7.57;;;20.50;99.90;;;;;;4998970;28;20505;-72
2022/07/21 07:00:24;;;;;;;8.73;7.80;;;20.40;99.90;;;;;;4999500;28;20502;-75
2022/07/21 07:02:52;;;;;;;9.70;7.73;;;20.40;99.90;;;;;;4999277;28;20490;-75
2022/07/21 07:05:19;;;;;;;8.43;7.60;;;20.70;99.90;;;;;;4996946;28;20458;-73
2022/07/21 07:07:47;;;;;;;9.60;8.13;;;21.00;99.90;;;;;;4998416;28;21550;-74
2022/07/21 07:10:15;;;;;;;10.40;8.03;;;21.30;99.90;;;;;;4998308;28;20926;-73
2022/07/21 07:12:42;;;;;;;10.87;9.77;;;21.80;99.90;;;;;;4997867;28;20506;-73
2022/07/21 07:15:09;;;;;;;10.03;8.50;;;22.00;99.90;;;;;;4997154;28;20466;-73
2022/07/21 07:17:36;;;;;;;8.97;8.07;;;22.20;99.90;;;;;;4997710;28;20935;-72
2022/07/21 07:20:06;;;;;;;11.30;8.63;;;22.40;99.90;;;;;;4997150;28;20434;-72
2022/07/21 07:22:33;;;;;;;9.57;8.57;;;22.60;99.90;;;;;;4997372;28;21677;-71
2022/07/21 07:25:00;;;;;;;12.40;8.60;;;22.50;99.90;;;;;;4997293;28;20509;-71
2022/07/21 07:27:26;;;;;;;10.00;9.00;;;22.30;99.90;;;;;;4996254;28;20471;-72
2022/07/21 07:29:53;;;;;;;9.47;8.20;;;22.00;99.90;;;;;;4997367;28;20459;-73
2022/07/21 07:32:20;;;;;;;14.23;8.60;;;22.00;99.90;;;;;;4997371;28;20534;-72
2022/07/21 07:34:47;;;;;;;11.13;8.97;;;21.70;99.90;;;;;;4997094;28;20522;-73
2022/07/21 07:37:15;;;;;;;11.83;8.40;;;21.70;99.90;;;;;;4997371;28;20482;-72
2022/07/21 07:39:41;;;;;;;9.33;8.20;;;21.70;99.90;;;;;;4996971;28;20506;-71
2022/07/21 07:42:09;;;;;;;9.30;8.30;;;21.80;99.90;;;;;;4996638;28;20537;-72
2022/07/21 07:44:36;;;;;;;9.60;8.57;;;21.90;99.90;;;;;;4996730;28;20481;-72
2022/07/21 07:47:03;;;;;;;9.20;8.03;;;22.10;99.90;;;;;;4996630;28;20474;-74
2022/07/21 07:49:30;;;;;;;9.13;7.57;;;22.20;99.90;;;;;;4996687;28;20451;-73
2022/07/21 07:51:57;;;;;;;9.00;8.07;;;22.20;99.90;;;;;;4996015;28;20447;-77
2022/07/21 07:54:25;;;;;;;9.10;7.87;;;22.40;99.90;;;;;;4997357;28;20454;-73
2022/07/21 07:56:51;;;;;;;11.80;7.80;;;22.50;99.90;;;;;;4995415;28;20521;-73
2022/07/21 07:59:18;;;;;;;11.53;8.30;;;22.50;99.90;;;;;;4995450;28;20454;-73
2022/07/21 08:01:45;;;;;;;9.63;8.63;;;22.50;99.90;;;;;;4996037;28;20482;-74
2022/07/21 08:04:14;;;;;;;9.40;8.37;;;22.60;99.90;;;;;;4996753;28;20446;-73
2022/07/21 08:06:40;;;;;;;10.80;8.20;;;22.70;99.90;;;;;;4995905;28;20983;-75
2022/07/21 08:09:07;;;;;;;8.00;7.20;;;22.90;99.90;;;;;;4997134;28;20459;-75
2022/07/21 08:11:35;;;;;;;10.70;7.13;;;23.10;99.90;;;;;;4997126;28;20545;-75
2022/07/21 08:14:02;;;;;;;9.13;7.60;;;23.20;99.90;;;;;;4997005;28;20451;-75
2022/07/21 08:16:29;;;;;;;11.80;7.00;;;23.20;99.90;;;;;;4996402;28;20817;-75
2022/07/21 08:18:55;;;;;;;8.27;7.47;;;23.10;99.90;;;;;;4997386;28;20466;-74
2022/07/21 08:21:24;;;;;;;9.50;7.77;;;23.00;99.90;;;;;;4996866;28;20537;-75
2022/07/21 08:23:51;;;;;;;9.17;7.50;;;22.80;99.90;;;;;;4996849;28;20978;-75
2022/07/21 08:26:17;;;;;;;8.53;7.20;;;22.70;99.90;;;;;;4996675;28;20482;-75
2022/07/21 08:28:45;;;;;;;8.13;7.30;;;22.70;99.90;;;;;;4997646;28;20514;-74
2022/07/21 08:31:12;;;;;;;9.20;7.30;;;22.60;99.90;;;;;;4997084;28;20902;-74
2022/07/21 08:33:39;;;;;;;9.00;7.00;;;22.60;99.90;;;;;;4995898;28;20466;-73
2022/07/21 08:36:06;;;;;;;8.17;7.37;;;22.70;99.90;;;;;;4997077;28;20474;-74
2022/07/21 08:38:33;;;;;;;8.47;7.13;;;22.70;99.90;;;;;;4996434;28;20579;-74
2022/07/21 08:40:59;;;;;;;8.60;7.27;;;22.70;99.90;;;;;;4997616;28;20447;-74
2022/07/21 08:43:26;;;;;;;7.60;6.80;;;22.70;99.90;;;;;;4995583;28;20858;-74
2022/07/21 08:45:55;;;;;;;7.63;6.77;;;22.60;99.90;;;;;;4996197;28;20471;-75
2022/07/21 08:48:25;;;;;;;7.27;6.57;;;22.70;99.90;;;;;;4996764;28;20455;-74
2022/07/21 08:50:52;;;;;;;7.00;6.40;;;22.90;99.90;;;;;;4996946;28;21049;-74
2022/07/21 08:53:19;;;;;;;6.73;5.70;;;22.90;99.90;;;;;;4997114;28;20455;-74
2022/07/21 08:55:46;;;;;;;7.30;6.40;;;22.70;99.90;;;;;;4996569;28;20452;-73
2022/07/21 08:58:13;;;;;;;11.23;6.07;;;22.70;99.90;;;;;;4996337;28;21167;-74
2022/07/21 09:00:42;;;;;;;7.20;5.90;;;23.20;99.90;;;;;;4996704;28;21052;-75
2022/07/21 09:03:13;;;;;;;6.33;5.60;;;23.30;99.90;;;;;;4996608;28;20565;-74
2022/07/21 09:05:40;;;;;;;6.17;5.57;;;23.60;99.90;;;;;;4996384;28;20935;-75
2022/07/21 09:08:06;;;;;;;5.97;5.30;;;23.80;99.90;;;;;;4996939;28;20500;-75
2022/07/21 09:10:34;;;;;;;9.30;6.57;;;23.90;99.90;;;;;;4998963;28;20459;-74
2022/07/21 09:13:03;;;;;;;6.33;5.30;;;23.80;99.90;;;;;;4999967;28;20512;-74
2022/07/21 09:15:32;;;;;;;5.67;5.13;;;23.40;99.90;;;;;;4999449;28;20455;-74
2022/07/21 09:18:12;;;;;;;9.03;5.47;;;23.10;99.90;;;;;;5000833;28;20454;-74
2022/07/21 09:20:47;;;;;;;9.20;5.20;;;23.30;99.90;;;;;;5000380;28;20542;-75
2022/07/21 09:23:16;;;;;;;6.60;5.80;;;23.60;99.90;;;;;;4999350;28;20481;-75
2022/07/21 09:25:45;;;;;;;6.50;5.90;;;24.00;99.90;;;;;;4999820;28;20449;-74
2022/07/21 09:28:15;;;;;;;6.43;5.73;;;24.30;99.90;;;;;;5000068;28;20454;-75
2022/07/21 09:30:55;;;;;;;6.77;5.60;;;24.60;99.90;;;;;;4999449;28;20450;-74
2022/07/21 09:33:31;;;;;;;6.23;5.57;;;24.70;99.90;;;;;;4998809;28;20965;-74
2022/07/21 09:36:04;;;;;;;6.03;5.50;;;24.80;99.90;;;;;;4999395;28;20489;-73
2022/07/21 09:38:33;;;;;;;7.93;6.00;;;25.00;99.90;;;;;;4999981;28;20451;-73
2022/07/21 09:41:08;;;;;;;5.53;5.03;;;25.10;99.90;;;;;;4999439;28;20447;-74
2022/07/21 09:43:45;;;;;;;11.70;5.87;;;25.40;99.90;;;;;;4999456;28;20474;-74
2022/07/21 09:46:15;;;;;;;6.63;5.60;;;25.50;99.90;;;;;;4999633;28;20473;-74
2022/07/21 09:48:45;;;;;;;5.60;5.10;;;25.30;99.90;;;;;;5000231;28;20462;-74
2022/07/21 09:51:29;;;;;;;5.63;5.03;;;25.20;99.90;;;;;;4998989;28;20444;-73
2022/07/21 09:53:59;;;;;;;6.40;5.80;;;25.20;99.90;;;;;;4999643;28;20447;-74
2022/07/21 09:56:27;;;;;;;6.07;5.50;;;24.80;99.90;;;;;;4971872;28;20527;-74
2022/07/21 09:58:56;;;;;;;6.60;5.77;;;24.60;99.90;;;;;;4971882;28;21099;-75
2022/07/21 10:01:23;;;;;;;6.13;5.23;;;24.30;99.90;;;;;;4999489;28;20595;-75
2022/07/21 10:03:52;;;;;;;5.23;4.77;;;24.10;99.90;;;;;;4999324;28;21279;-76
2022/07/21 10:06:21;;;;;;;7.97;6.10;;;24.00;99.90;;;;;;4998494;28;20479;-75
2022/07/21 10:08:48;;;;;;;6.63;5.93;;;23.90;99.90;;;;;;4998663;28;20462;-75
2022/07/21 10:11:15;;;;;;;7.17;5.70;;;23.70;99.90;;;;;;4999054;28;20468;-75
2022/07/21 10:13:42;;;;;;;7.03;5.73;;;23.70;99.90;;;;;;4999043;28;20945;-76
2022/07/21 10:16:11;;;;;;;5.73;5.13;;;23.80;99.90;;;;;;4999172;28;20482;-75
2022/07/21 10:18:46;;;;;;;5.80;5.30;;;24.00;99.90;;;;;;4999634;28;20484;-75
2022/07/21 10:21:27;;;;;;;7.27;5.93;;;24.00;99.90;;;;;;4997315;28;20959;-75
2022/07/21 10:23:54;;;;;;;9.90;5.50;;;23.90;99.90;;;;;;4999498;28;20490;-75
2022/07/21 10:26:22;;;;;;;6.60;6.10;;;23.70;99.90;;;;;;4998469;28;20470;-74
2022/07/21 10:28:49;;;;;;;7.07;6.07;;;23.80;99.90;;;;;;4998782;28;20454;-75
2022/07/21 10:31:19;;;;;;;7.37;5.57;;;24.10;99.90;;;;;;4998444;28;20478;-75
2022/07/21 10:34:00;;;;;;;5.43;4.93;;;24.40;99.90;;;;;;4998595;28;20482;-77
2022/07/21 10:36:42;;;;;;;8.83;5.27;;;24.30;99.90;;;;;;4998246;28;20495;-76
2022/07/21 10:39:26;;;;;;;5.37;4.87;;;24.40;99.90;;;;;;4999140;28;20446;-75
2022/07/21 10:41:59;;;;;;;7.63;5.30;;;24.50;99.90;;;;;;4998717;28;20961;-76
2022/07/21 10:44:47;;;;;;;8.43;5.77;;;24.60;99.90;;;;;;4998738;28;20458;-76
2022/07/21 10:47:18;;;;;;;10.13;5.60;;;24.80;99.90;;;;;;4997093;28;20486;-76
2022/07/21 10:49:50;;;;;;;5.67;5.10;;;25.00;99.90;;;;;;4998253;28;20466;-76
2022/07/21 10:53:00;;;;;;;7.23;5.63;;;25.00;99.90;;;;;;4998547;28;20454;-75
2022/07/21 10:55:29;;;;;;;8.63;5.60;;;24.60;99.90;;;;;;4998209;28;20802;-75
2022/07/21 10:58:17;;;;;;;7.57;5.70;;;24.40;99.90;;;;;;4998333;28;20827;-76
2022/07/21 11:00:52;;;;;;;7.20;5.93;;;24.20;99.90;;;;;;4998308;28;21261;-76
2022/07/21 11:03:26;;;;;;;8.53;5.40;;;24.10;99.90;;;;;;4998127;28;20469;-75
2022/07/21 11:06:18;;;;;;;5.93;5.33;;;23.90;99.90;;;;;;4998214;28;20953;-75
2022/07/21 11:08:47;;;;;;;6.50;5.90;;;23.60;99.90;;;;;;4992395;28;20477;-74
2022/07/21 11:11:15;;;;;;;6.43;5.60;;;23.40;99.90;;;;;;4997820;28;20446;-76
2022/07/21 11:14:03;;;;;;;7.20;6.50;;;23.50;99.90;;;;;;4997923;28;20981;-74
2022/07/21 11:16:59;;;;;;;5.97;5.37;;;23.80;99.90;;;;;;4997882;28;20476;-74
2022/07/21 11:19:35;;;;;;;7.13;5.30;;;24.40;99.90;;;;;;4962688;28;20496;-72
2022/07/21 11:22:05;;;;;;;5.23;4.77;;;24.90;99.90;;;;;;4995574;28;20458;-75
2022/07/21 11:24:34;;;;;;;6.70;5.50;;;25.30;99.90;;;;;;4997205;28;21081;-74
2022/07/21 11:27:03;;;;;;;6.13;5.53;;;25.40;99.90;;;;;;4997397;28;20474;-75
2022/07/21 11:29:30;;;;;;;10.43;5.30;;;25.40;99.90;;;;;;4997358;28;20522;-75
2022/07/21 11:31:58;;;;;;;6.47;5.87;;;25.10;99.90;;;;;;4998827;28;20459;-73
2022/07/21 11:34:25;;;;;;;4.77;4.37;;;24.80;99.90;;;;;;4997093;28;20458;-73
2022/07/21 11:37:00;;;;;;;10.27;5.10;;;24.70;99.90;;;;;;4997847;28;20474;-75
2022/07/21 11:39:27;;;;;;;5.90;5.30;;;24.60;99.90;;;;;;4997893;28;20528;-74
2022/07/21 11:42:01;;;;;;;5.50;5.00;;;24.50;99.90;;;;;;4997477;28;20532;-75
2022/07/21 11:44:28;;;;;;;7.43;5.10;;;24.50;99.90;;;;;;4997130;28;20494;-75
2022/07/21 11:46:56;;;;;;;7.90;5.27;;;24.50;99.90;;;;;;4996967;28;21152;-76
2022/07/21 11:49:24;;;;;;;6.47;4.23;;;24.60;99.90;;;;;;4997120;28;20947;-74
2022/07/21 11:51:54;;;;;;;5.63;5.03;;;24.90;99.90;;;;;;4997469;28;20508;-75
2022/07/21 11:54:28;;;;;;;10.23;4.93;;;25.30;99.90;;;;;;4997331;28;20446;-74
2022/07/21 11:56:57;;;;;;;5.50;5.00;;;25.30;99.90;;;;;;4996422;28;20994;-74
2022/07/21 11:59:24;;;;;;;4.87;4.47;;;25.20;99.90;;;;;;4996965;28;20442;-74
2022/07/21 12:01:56;;;;;;;5.50;5.00;;;25.20;99.90;;;;;;4997228;28;20442;-76
2022/07/21 12:04:35;;;;;;;5.13;4.63;;;25.30;99.90;;;;;;4996833;28;20524;-76
2022/07/21 12:07:03;;;;;;;5.00;4.50;;;25.30;99.90;;;;;;4996881;28;20554;-76
2022/07/21 12:09:31;;;;;;;7.30;4.90;;;25.30;99.90;;;;;;4996709;28;20486;-75
2022/07/21 12:11:59;;;;;;;5.23;4.80;;;25.20;99.90;;;;;;4997667;28;20451;-75
2022/07/21 12:14:46;;;;;;;4.93;4.43;;;25.20;99.90;;;;;;4996660;28;20446;-76
2022/07/21 12:17:13;;;;;;;6.10;5.33;;;25.20;99.90;;;;;;4996285;28;21590;-76
2022/07/21 12:19:40;;;;;;;7.23;4.83;;;25.20;99.90;;;;;;4995439;28;20802;-76
2022/07/21 12:22:07;;;;;;;6.87;4.60;;;25.10;99.90;;;;;;4997262;28;20512;-74
2022/07/21 12:24:55;;;;;;;5.00;4.30;;;25.30;99.90;;;;;;4996563;28;20545;-75
2022/07/21 12:27:24;;;;;;;7.03;4.10;;;25.90;99.90;;;;;;4995752;28;20474;-75
2022/07/21 12:29:50;;;;;;;4.37;3.80;;;26.30;99.90;;;;;;4996929;28;20455;-76
2022/07/21 12:32:48;;;;;;;4.47;4.07;;;26.40;99.90;;;;;;4996421;28;20958;-76
2022/07/21 12:35:24;;;;;;;4.00;3.60;;;26.20;99.90;;;;;;4997143;28;20458;-75
2022/07/21 12:38:00;;;;;;;5.03;4.40;;;26.00;99.90;;;;;;4996786;28;20825;-76
2022/07/21 12:40:28;;;;;;;4.10;3.80;;;26.10;99.90;;;;;;4997315;28;20455;-76
2022/07/21 12:43:10;;;;;;;8.80;5.30;;;26.40;99.90;;;;;;4996535;28;21132;-75
2022/07/21 12:45:51;;;;;;;5.00;3.90;;;26.70;99.90;;;;;;4999322;28;21219;-76
2022/07/21 12:48:19;;;;;;;4.50;3.97;;;26.90;99.90;;;;;;5000535;28;20893;-76